createdAt,value
2018-04-19T00:00:08.650Z,41.60
2018-04-19T00:02:36.814Z,41.60
2018-04-19T00:05:05.817Z,41.70
2018-04-19T00:07:33.937Z,41.70
2018-04-19T00:10:02.155Z,41.70
2018-04-19T00:12:31.038Z,41.80
2018-04-19T00:14:59.921Z,41.80
2018-04-19T00:17:28.810Z,41.80
2018-04-19T00:19:57.735Z,41.80
2018-04-19T00:22:25.847Z,41.80
2018-04-19T00:24:53.982Z,41.80
2018-04-19T00:27:22.147Z,41.90
2018-04-19T00:29:50.310Z,42.00
2018-04-19T00:32:18.426Z,42.20
2018-04-19T00:34:46.590Z,42.20
2018-04-19T00:37:14.718Z,42.20
2018-04-19T00:39:43.605Z,42.30
2018-04-19T00:42:12.490Z,42.40
2018-04-19T00:44:40.618Z,42.20
2018-04-19T00:47:08.762Z,42.80
2018-04-19T00:49:36.874Z,42.50
2018-04-19T00:52:05.002Z,42.50
2018-04-19T00:54:33.134Z,42.50
2018-04-19T00:57:01.362Z,42.70
2018-04-19T00:59:29.472Z,42.60
2018-04-19T01:01:57.606Z,42.60
2018-04-19T01:04:25.760Z,42.70
2018-04-19T01:06:54.648Z,43.10
2018-04-19T01:09:23.530Z,42.80
2018-04-19T01:11:52.415Z,43.00
2018-04-19T01:14:20.560Z,43.00
2018-04-19T01:16:48.688Z,43.10
2018-04-19T01:19:17.585Z,42.90
2018-04-19T01:21:45.705Z,42.90
2018-04-19T01:24:13.931Z,43.10
2018-04-19T01:26:42.927Z,42.90
2018-04-19T01:29:11.044Z,43.00
2018-04-19T01:31:39.278Z,43.00
2018-04-19T01:34:07.402Z,42.80
2018-04-19T01:36:35.527Z,43.10
2018-04-19T01:39:03.649Z,43.10
2018-04-19T01:41:31.787Z,43.10
2018-04-19T01:43:59.898Z,43.20
2018-04-19T01:46:28.018Z,43.30
2018-04-19T01:48:56.152Z,43.20
2018-04-19T01:51:25.778Z,43.40
2018-04-19T01:53:54.730Z,43.60
2018-04-19T01:56:22.868Z,43.60
2018-04-19T01:58:51.014Z,43.40
2018-04-19T02:01:19.892Z,43.70
2018-04-19T02:03:47.999Z,43.70
2018-04-19T02:06:16.130Z,43.70
2018-04-19T02:08:45.042Z,44.40
2018-04-19T02:11:13.925Z,43.90
2018-04-19T02:13:42.806Z,43.80
2018-04-19T02:16:11.722Z,44.10
2018-04-19T02:18:39.854Z,44.00
2018-04-19T02:21:07.966Z,43.90
2018-04-19T02:23:36.085Z,43.90
2018-04-19T02:26:04.222Z,43.80
2018-04-19T02:28:32.383Z,43.80
2018-04-19T02:31:01.262Z,43.80
2018-04-19T02:33:30.167Z,43.80
2018-04-19T02:35:59.041Z,43.90
2018-04-19T02:38:27.936Z,44.00
2018-04-19T02:40:56.829Z,43.90
2018-04-19T02:43:25.720Z,43.60
2018-04-19T02:45:54.627Z,43.80
2018-04-19T02:48:22.759Z,43.80
2018-04-19T02:50:50.886Z,43.70
2018-04-19T02:53:19.039Z,43.70
2018-04-19T02:55:47.181Z,43.60
2018-04-19T02:58:15.383Z,43.30
2018-04-19T03:00:43.563Z,43.30
2018-04-19T03:03:11.711Z,43.10
2018-04-19T03:05:40.633Z,43.50
2018-04-19T03:08:08.746Z,43.20
2018-04-19T03:10:36.979Z,43.00
2018-04-19T03:13:05.153Z,43.20
2018-04-19T03:15:33.276Z,43.50
2018-04-19T03:18:01.398Z,43.30
2018-04-19T03:20:29.531Z,43.50
2018-04-19T03:22:59.157Z,43.20
2018-04-19T03:25:28.039Z,43.40
2018-04-19T03:27:56.151Z,43.30
2018-04-19T03:30:24.277Z,43.30
2018-04-19T03:32:52.399Z,43.60
2018-04-19T03:35:20.521Z,43.50
2018-04-19T03:37:48.661Z,44.00
2018-04-19T03:40:16.799Z,43.90
2018-04-19T03:42:45.696Z,44.20
2018-04-19T03:45:13.847Z,44.20
2018-04-19T03:47:42.758Z,43.90
2018-04-19T03:50:10.886Z,43.80
2018-04-19T03:52:40.514Z,43.90
2018-04-19T03:55:09.424Z,44.20
2018-04-19T03:57:38.314Z,44.30
2018-04-19T04:00:06.432Z,44.20
2018-04-19T04:02:34.570Z,44.20
2018-04-19T04:05:02.738Z,44.40
2018-04-19T04:07:30.906Z,44.70
2018-04-19T04:09:59.021Z,44.70
2018-04-19T04:12:27.173Z,45.00
2018-04-19T04:14:55.315Z,44.90
2018-04-19T04:17:36.079Z,45.20
2018-04-19T04:23:22.550Z,45.70
2018-04-19T04:25:50.671Z,45.40
2018-04-19T04:28:19.560Z,45.20
2018-04-19T04:30:47.718Z,45.10
2018-04-19T04:33:15.831Z,45.30
2018-04-19T04:35:44.710Z,45.20
2018-04-19T04:38:13.594Z,45.00
2018-04-19T04:40:42.470Z,45.20
2018-04-19T04:43:11.112Z,45.10
2018-04-19T04:45:39.226Z,45.30
2018-04-19T04:48:07.350Z,45.50
2018-04-19T04:50:35.530Z,45.10
2018-04-19T04:53:03.638Z,45.60
2018-04-19T04:55:31.750Z,45.60
2018-04-19T04:57:59.909Z,45.70
2018-04-19T05:00:28.817Z,45.70
2018-04-19T05:02:57.896Z,45.60
2018-04-19T05:05:26.772Z,45.70
2018-04-19T05:07:54.883Z,45.60
2018-04-19T05:10:23.001Z,45.60
2018-04-19T05:12:51.159Z,45.80
2018-04-19T05:15:19.299Z,46.00
2018-04-19T05:17:47.418Z,46.20
2018-04-19T05:20:15.596Z,46.50
2018-04-19T05:22:43.714Z,46.10
2018-04-19T05:25:11.841Z,46.90
2018-04-19T05:27:40.722Z,47.20
2018-04-19T05:30:08.849Z,46.80
2018-04-19T05:32:36.994Z,46.50
2018-04-19T05:35:05.107Z,46.50
2018-04-19T05:37:33.214Z,46.90
2018-04-19T05:40:01.353Z,46.40
2018-04-19T05:42:29.501Z,46.40
2018-04-19T05:44:58.385Z,46.30
2018-04-19T05:47:27.297Z,46.30
2018-04-19T05:49:55.427Z,46.30
2018-04-19T05:52:23.597Z,46.20
2018-04-19T05:54:51.711Z,46.50
2018-04-19T05:57:19.821Z,46.50
2018-04-19T05:59:47.950Z,46.60
2018-04-19T06:02:16.094Z,46.40
2018-04-19T06:04:44.227Z,46.40
2018-04-19T06:07:12.344Z,46.50
2018-04-19T06:09:40.453Z,46.90
2018-04-19T06:12:08.617Z,46.80
2018-04-19T06:14:36.751Z,46.80
2018-04-19T06:17:06.399Z,47.00
2018-04-19T06:19:34.541Z,46.90
2018-04-19T06:22:02.676Z,46.80
2018-04-19T06:24:30.797Z,47.00
2018-04-19T06:26:59.714Z,47.10
2018-04-19T06:29:27.835Z,47.00
2018-04-19T06:31:55.980Z,47.10
2018-04-19T06:34:24.091Z,47.00
2018-04-19T06:36:52.243Z,47.10
2018-04-19T06:39:20.398Z,47.30
2018-04-19T06:41:48.508Z,47.10
2018-04-19T06:44:16.628Z,46.90
2018-04-19T06:46:44.764Z,47.00
2018-04-19T06:49:13.642Z,47.90
2018-04-19T06:51:41.776Z,47.20
2018-04-19T06:54:09.942Z,47.20
2018-04-19T06:56:38.094Z,47.10
2018-04-19T06:59:06.266Z,47.30
2018-04-19T07:01:35.163Z,47.50
2018-04-19T07:04:03.295Z,47.50
2018-04-19T07:06:31.499Z,47.40
2018-04-19T07:08:59.554Z,47.50
2018-04-19T07:11:27.655Z,47.60
2018-04-19T07:13:55.826Z,47.80
2018-04-19T07:16:24.718Z,48.40
2018-04-19T07:18:52.894Z,47.80
2018-04-19T07:21:21.770Z,48.00
2018-04-19T07:23:50.686Z,47.90
2018-04-19T07:26:18.834Z,47.90
2018-04-19T07:28:47.720Z,48.00
2018-04-19T07:31:16.595Z,48.30
2018-04-19T07:33:44.726Z,48.20
2018-04-19T07:36:12.860Z,48.10
2018-04-19T07:38:41.746Z,48.00
2018-04-19T07:41:10.646Z,47.90
2018-04-19T07:43:39.534Z,47.90
2018-04-19T07:46:08.455Z,47.90
2018-04-19T07:48:36.554Z,47.90
2018-04-19T07:51:04.673Z,47.80
2018-04-19T07:53:33.576Z,47.70
2018-04-19T07:56:02.463Z,47.40
2018-04-19T07:58:30.593Z,47.40
2018-04-19T08:00:58.681Z,47.40
2018-04-19T08:03:26.846Z,47.30
2018-04-19T08:05:55.059Z,47.50
2018-04-19T08:08:23.257Z,47.20
2018-04-19T08:10:51.362Z,47.40
2018-04-19T08:13:19.586Z,47.20
2018-04-19T08:15:47.730Z,47.10
2018-04-19T08:18:16.602Z,46.10
2018-04-19T08:20:44.754Z,46.10
2018-04-19T08:23:12.869Z,46.30
2018-04-19T08:25:41.808Z,46.30
2018-04-19T08:28:09.937Z,46.20
2018-04-19T08:30:38.030Z,46.50
2018-04-19T08:33:06.186Z,46.00
2018-04-19T08:35:35.066Z,46.10
2018-04-19T08:38:04.815Z,46.00
2018-04-19T08:40:32.915Z,46.00
2018-04-19T08:43:01.041Z,45.70
2018-04-19T08:45:30.013Z,45.70
2018-04-19T08:47:58.117Z,45.80
2018-04-19T08:50:26.236Z,45.30
2018-04-19T08:52:54.347Z,45.10
2018-04-19T08:55:23.227Z,45.00
2018-04-19T08:57:52.147Z,45.00
2018-04-19T09:00:20.255Z,45.00
2018-04-19T09:02:48.393Z,45.00
2018-04-19T09:05:17.282Z,45.00
2018-04-19T09:07:45.421Z,45.00
2018-04-19T09:10:13.551Z,45.00
2018-04-19T09:12:41.683Z,45.70
2018-04-19T09:15:10.679Z,45.40
2018-04-19T09:17:39.593Z,45.70
2018-04-19T09:20:07.705Z,45.70
2018-04-19T09:22:35.917Z,45.10
2018-04-19T09:25:04.843Z,45.00
2018-04-19T09:27:33.013Z,45.00
2018-04-19T09:30:01.117Z,44.10
2018-04-19T09:32:29.225Z,44.50
2018-04-19T09:34:58.143Z,43.20
2018-04-19T09:37:27.040Z,44.50
2018-04-19T09:39:55.136Z,44.50
2018-04-19T09:42:23.247Z,44.20
2018-04-19T09:44:51.407Z,43.90
2018-04-19T09:47:19.518Z,43.70
2018-04-19T09:49:47.628Z,43.90
2018-04-19T09:52:15.754Z,43.60
2018-04-19T09:54:43.916Z,43.00
2018-04-19T09:57:12.820Z,44.00
2018-04-19T09:59:40.932Z,44.00
2018-04-19T10:02:09.088Z,42.80
2018-04-19T10:04:37.183Z,42.80
2018-04-19T10:07:05.301Z,42.80
2018-04-19T10:09:34.298Z,42.00
2018-04-19T10:12:02.420Z,42.00
2018-04-19T10:14:30.526Z,42.20
2018-04-19T10:16:59.434Z,42.80
2018-04-19T10:19:28.357Z,41.50
2018-04-19T10:21:56.497Z,41.50
2018-04-19T10:24:25.449Z,41.70
2018-04-19T10:26:53.572Z,41.70
2018-04-19T10:29:22.443Z,41.40
2018-04-19T10:31:51.333Z,39.60
2018-04-19T10:34:20.252Z,42.10
2018-04-19T10:36:48.371Z,42.10
2018-04-19T10:39:17.335Z,42.00
2018-04-19T10:41:45.439Z,42.20
2018-04-19T10:44:13.649Z,42.10
2018-04-19T10:46:42.564Z,41.30
2018-04-19T10:49:10.787Z,41.20
2018-04-19T10:51:38.840Z,41.00
2018-04-19T10:54:06.958Z,40.80
2018-04-19T10:56:35.838Z,41.00
2018-04-19T10:59:04.751Z,39.60
2018-04-19T11:01:32.866Z,39.50
2018-04-19T11:04:00.974Z,40.00
2018-04-19T11:06:29.854Z,40.70
2018-04-19T11:08:57.965Z,40.70
2018-04-19T11:11:26.123Z,40.60
2018-04-19T11:13:55.146Z,39.50
2018-04-19T11:16:23.247Z,39.50
2018-04-19T11:18:51.466Z,39.50
2018-04-19T11:21:19.569Z,38.00
2018-04-19T11:23:47.668Z,40.10
2018-04-19T11:26:15.819Z,40.40
2018-04-19T11:28:43.945Z,40.60
2018-04-19T11:31:12.832Z,40.60
2018-04-19T11:33:41.715Z,40.00
2018-04-19T11:36:09.838Z,40.00
2018-04-19T11:38:37.938Z,40.50
2018-04-19T11:41:06.054Z,38.90
2018-04-19T11:43:34.972Z,39.60
2018-04-19T11:46:03.104Z,39.60
2018-04-19T11:48:31.216Z,39.80
2018-04-19T11:50:59.494Z,38.80
2018-04-19T11:53:27.570Z,39.90
2018-04-19T11:55:55.674Z,40.10
2018-04-19T11:58:23.917Z,39.00
2018-04-19T12:00:52.074Z,38.40
2018-04-19T12:03:20.213Z,38.70
2018-04-19T12:05:48.351Z,39.20
2018-04-19T12:08:16.496Z,38.60
2018-04-19T12:10:44.606Z,39.00
2018-04-19T12:13:12.758Z,39.20
2018-04-19T12:15:40.864Z,38.70
2018-04-19T12:18:09.016Z,38.00
2018-04-19T12:20:37.114Z,37.60
2018-04-19T12:23:06.751Z,39.30
2018-04-19T12:25:36.433Z,39.10
2018-04-19T12:28:04.521Z,39.00
2018-04-19T12:30:32.646Z,38.20
2018-04-19T12:33:00.746Z,37.70
2018-04-19T12:35:28.853Z,38.80
2018-04-19T12:37:57.789Z,39.10
2018-04-19T12:40:25.906Z,39.10
2018-04-19T12:42:54.781Z,39.00
2018-04-19T12:45:22.933Z,38.90
2018-04-19T12:47:51.038Z,38.40
2018-04-19T12:50:19.962Z,38.10
2018-04-19T12:52:48.148Z,38.10
2018-04-19T12:55:16.248Z,37.70
2018-04-19T12:57:44.353Z,38.60
2018-04-19T13:00:13.241Z,39.20
2018-04-19T13:02:42.113Z,38.80
2018-04-19T13:05:10.246Z,38.10
2018-04-19T13:07:38.397Z,36.90
2018-04-19T13:10:06.555Z,35.70
2018-04-19T13:12:35.545Z,38.20
2018-04-19T13:15:04.429Z,38.10
2018-04-19T13:17:32.550Z,38.00
2018-04-19T13:20:00.670Z,36.00
2018-04-19T13:22:28.800Z,33.20
2018-04-19T13:24:56.904Z,36.50
2018-04-19T13:27:25.014Z,36.00
2018-04-19T13:29:53.908Z,35.10
2018-04-19T13:32:22.107Z,35.00
2018-04-19T13:34:50.186Z,36.40
2018-04-19T13:37:18.308Z,36.60
2018-04-19T13:39:47.217Z,35.70
2018-04-19T13:42:15.361Z,35.60
2018-04-19T13:44:43.487Z,35.90
2018-04-19T13:47:11.634Z,35.60
2018-04-19T13:49:40.523Z,33.80
2018-04-19T13:52:09.409Z,34.30
2018-04-19T13:54:38.279Z,34.10
2018-04-19T13:57:07.943Z,34.00
2018-04-19T13:59:36.091Z,34.00
2018-04-19T14:02:04.998Z,34.70
2018-04-19T14:04:33.898Z,34.80
2018-04-19T14:07:01.995Z,34.80
2018-04-19T14:09:30.109Z,34.60
2018-04-19T14:11:59.040Z,33.50
2018-04-19T14:14:27.145Z,33.40
2018-04-19T14:16:55.274Z,34.20
2018-04-19T14:19:23.386Z,33.60
2018-04-19T14:21:51.494Z,32.80
2018-04-19T14:24:20.360Z,33.30
2018-04-19T14:26:48.525Z,33.20
2018-04-19T14:29:16.663Z,34.30
2018-04-19T14:31:44.918Z,33.10
2018-04-19T14:34:13.023Z,34.10
2018-04-19T14:36:41.127Z,32.70
2018-04-19T14:39:09.361Z,34.50
2018-04-19T14:41:37.472Z,34.60
2018-04-19T14:44:05.612Z,31.90
2018-04-19T14:46:33.708Z,32.60
2018-04-19T14:49:01.838Z,32.10
2018-04-19T14:51:29.950Z,34.00
2018-04-19T14:53:58.074Z,34.00
2018-04-19T14:56:26.959Z,30.80
2018-04-19T14:58:55.966Z,32.10
2018-04-19T15:01:24.214Z,32.10
2018-04-19T15:03:53.102Z,31.80
2018-04-19T15:06:21.214Z,31.80
2018-04-19T15:08:50.098Z,33.50
2018-04-19T15:11:18.234Z,33.50
2018-04-19T15:13:46.328Z,31.00
2018-04-19T15:16:15.272Z,33.80
2018-04-19T15:18:44.167Z,33.30
2018-04-19T15:21:12.320Z,33.30
2018-04-19T15:23:40.425Z,32.20
2018-04-19T15:26:08.532Z,32.40
2018-04-19T15:28:37.555Z,33.30
2018-04-19T15:31:05.729Z,33.30
2018-04-19T15:33:33.813Z,33.30
2018-04-19T15:36:01.969Z,33.60
2018-04-19T15:38:30.150Z,33.30
2018-04-19T15:40:58.257Z,32.80
2018-04-19T15:43:26.392Z,32.00
2018-04-19T15:45:54.489Z,32.80
2018-04-19T15:48:22.618Z,32.30
2018-04-19T15:50:50.763Z,33.10
2018-04-19T15:53:18.876Z,33.40
2018-04-19T15:55:46.989Z,33.10
2018-04-19T15:58:15.229Z,33.20
2018-04-19T16:00:43.403Z,32.30
2018-04-19T16:03:11.562Z,33.30
2018-04-19T16:05:39.682Z,33.00
2018-04-19T16:08:07.799Z,33.50
2018-04-19T16:10:36.688Z,33.10
2018-04-19T16:13:05.677Z,33.10
2018-04-19T16:15:34.553Z,32.70
2018-04-19T16:18:02.773Z,32.70
2018-04-19T16:20:30.897Z,32.30
2018-04-19T16:22:59.040Z,31.60
2018-04-19T16:25:27.254Z,32.70
2018-04-19T16:27:56.140Z,32.50
2018-04-19T16:30:24.310Z,32.40
2018-04-19T16:32:52.441Z,32.20
2018-04-19T16:35:20.585Z,32.10
2018-04-19T16:37:48.755Z,32.00
2018-04-19T16:40:17.667Z,32.50
2018-04-19T16:42:45.844Z,32.50
2018-04-19T16:45:14.019Z,32.70
2018-04-19T16:47:42.122Z,32.80
2018-04-19T16:50:10.314Z,32.20
2018-04-19T16:52:38.406Z,30.90
2018-04-19T16:55:07.285Z,32.10
2018-04-19T16:57:35.477Z,32.10
2018-04-19T17:00:03.681Z,32.30
2018-04-19T17:02:31.844Z,31.80
2018-04-19T17:04:59.949Z,31.80
2018-04-19T17:07:28.098Z,32.10
2018-04-19T17:09:56.270Z,32.20
2018-04-19T17:12:24.362Z,31.90
2018-04-19T17:14:52.526Z,30.90
2018-04-19T17:17:20.643Z,31.10
2018-04-19T17:19:48.867Z,31.20
2018-04-19T17:22:16.962Z,31.70
2018-04-19T17:24:45.100Z,30.90
2018-04-19T17:27:13.218Z,30.20
2018-04-19T17:29:41.436Z,30.20
2018-04-19T17:32:10.344Z,30.40
2018-04-19T17:34:38.525Z,30.30
2018-04-19T17:37:06.627Z,30.60
2018-04-19T17:39:34.868Z,30.10
2018-04-19T17:42:03.008Z,31.00
2018-04-19T17:44:31.905Z,30.70
2018-04-19T17:47:00.818Z,30.80
2018-04-19T17:49:28.944Z,30.80
2018-04-19T17:51:57.075Z,31.40
2018-04-19T17:54:25.255Z,31.40
2018-04-19T17:56:53.362Z,31.60
2018-04-19T17:59:21.500Z,31.30
2018-04-19T18:01:58.299Z,30.90
2018-04-19T18:04:29.702Z,30.80
2018-04-19T18:06:59.759Z,30.80
2018-04-19T18:09:27.856Z,31.10
2018-04-19T18:11:56.064Z,31.20
2018-04-19T18:14:24.976Z,31.40
2018-04-19T18:16:53.153Z,31.60
2018-04-19T18:19:21.272Z,31.70
2018-04-19T18:21:49.410Z,31.80
2018-04-19T18:24:17.646Z,31.80
2018-04-19T18:29:31.068Z,32.20
2018-04-19T18:32:02.378Z,32.30
2018-04-19T18:34:31.369Z,32.20
2018-04-19T18:36:59.624Z,32.30
2018-04-19T18:39:27.750Z,32.30
2018-04-19T18:41:55.882Z,32.60
2018-04-19T18:44:24.058Z,32.50
2018-04-19T18:46:52.191Z,32.50
2018-04-19T18:49:21.123Z,32.90
2018-04-19T18:51:49.238Z,32.90
2018-04-19T18:54:17.472Z,33.00
2018-04-19T18:56:45.630Z,33.20
2018-04-19T18:59:13.819Z,33.40
2018-04-19T19:01:41.942Z,33.40
2018-04-19T19:04:10.064Z,33.50
2018-04-19T19:06:38.173Z,33.90
2018-04-19T19:09:06.296Z,33.70
2018-04-19T19:11:34.486Z,33.70
2018-04-19T19:14:02.646Z,33.80
2018-04-19T19:16:30.746Z,33.90
2018-04-19T19:19:12.050Z,34.10
2018-04-19T19:21:40.157Z,34.10
2018-04-19T19:24:09.062Z,34.50
2018-04-19T19:26:37.219Z,34.40
2018-04-19T19:29:06.118Z,34.80
2018-04-19T19:31:34.261Z,34.80
2018-04-19T19:34:02.389Z,34.80
2018-04-19T19:36:30.505Z,34.90
2018-04-19T19:38:58.616Z,35.00
2018-04-19T19:41:26.766Z,35.10
2018-04-19T19:43:54.886Z,35.30
2018-04-19T19:46:23.007Z,35.40
2018-04-19T19:48:51.178Z,35.50
2018-04-19T19:51:19.300Z,35.60
2018-04-19T19:53:47.472Z,35.80
2018-04-19T19:56:15.581Z,35.80
2018-04-19T19:58:43.694Z,35.90
2018-04-19T20:01:11.823Z,36.00
2018-04-19T20:03:40.055Z,36.10
2018-04-19T20:06:08.166Z,36.20
2018-04-19T20:08:36.275Z,36.40
2018-04-19T20:11:05.186Z,36.60
2018-04-19T20:13:33.344Z,36.50
2018-04-19T20:16:02.281Z,36.80
2018-04-19T20:18:30.417Z,36.70
2018-04-19T20:20:59.289Z,36.90
2018-04-19T20:23:28.179Z,37.00
2018-04-19T20:25:57.218Z,37.00
2018-04-19T20:28:25.331Z,37.00
2018-04-19T20:30:53.471Z,37.20
2018-04-19T20:33:21.591Z,37.30
2018-04-19T20:35:49.786Z,37.30
2018-04-19T20:38:18.668Z,37.50
2018-04-19T20:40:47.550Z,37.60
2018-04-19T20:43:16.475Z,38.30
2018-04-19T20:45:44.590Z,37.60
2018-04-19T20:48:12.720Z,37.60
2018-04-19T20:50:40.821Z,37.90
2018-04-19T20:53:08.978Z,37.90
2018-04-19T20:55:37.085Z,38.00
2018-04-19T20:58:05.201Z,38.20
2018-04-19T21:00:33.332Z,38.20
2018-04-19T21:03:02.227Z,38.40
2018-04-19T21:05:30.395Z,38.40
2018-04-19T21:07:58.490Z,38.50
2018-04-19T21:10:27.372Z,38.50
2018-04-19T21:12:55.554Z,38.50
2018-04-19T21:15:24.449Z,38.80
2018-04-19T21:17:52.630Z,38.80
2018-04-19T21:20:21.512Z,39.00
2018-04-19T21:22:50.415Z,39.20
2018-04-19T21:25:19.328Z,39.20
2018-04-19T21:27:47.438Z,39.20
2018-04-19T21:30:15.542Z,39.30
2018-04-19T21:32:44.463Z,39.80
2018-04-19T21:35:12.604Z,39.70
2018-04-19T21:37:41.484Z,39.90
2018-04-19T21:40:09.651Z,39.90
2018-04-19T21:42:37.777Z,39.90
2018-04-19T21:45:05.913Z,40.00
2018-04-19T21:47:34.235Z,39.90
2018-04-19T21:50:02.354Z,40.60
2018-04-19T21:52:30.519Z,40.00
2018-04-19T21:54:58.758Z,40.00
2018-04-19T21:57:26.857Z,40.10
2018-04-19T21:59:55.026Z,40.20
2018-04-19T22:02:23.200Z,40.40
2018-04-19T22:04:51.351Z,40.50
2018-04-19T22:07:19.492Z,40.50
2018-04-19T22:09:48.405Z,41.20
2018-04-19T22:12:16.547Z,40.60
2018-04-19T22:14:44.720Z,40.70
2018-04-19T22:17:12.948Z,40.40
2018-04-19T22:19:41.070Z,41.00
2018-04-19T22:22:09.972Z,41.30
2018-04-19T22:24:38.894Z,41.60
2018-04-19T22:27:07.038Z,41.60
2018-04-19T22:29:35.944Z,41.80
2018-04-19T22:32:04.074Z,41.80
2018-04-19T22:34:32.288Z,42.00
2018-04-19T22:37:00.424Z,41.90
2018-04-19T22:39:28.560Z,42.10
2018-04-19T22:41:56.732Z,42.40
2018-04-19T22:44:24.904Z,42.50
2018-04-19T22:46:53.106Z,42.50
2018-04-19T22:49:21.928Z,42.80
2018-04-19T22:51:50.796Z,42.90
2018-04-19T22:54:18.945Z,42.90
2018-04-19T22:56:47.099Z,42.80
2018-04-19T22:59:15.237Z,43.60
2018-04-19T23:01:45.400Z,43.20
2018-04-19T23:04:13.529Z,43.20
2018-04-19T23:06:41.648Z,43.40
2018-04-19T23:09:09.794Z,43.20
2018-04-19T23:11:38.687Z,43.40
2018-04-19T23:14:06.868Z,43.40
2018-04-19T23:16:35.008Z,43.30
2018-04-19T23:19:03.134Z,43.30
2018-04-19T23:21:31.258Z,43.40
2018-04-19T23:24:00.158Z,43.60
2018-04-19T23:26:29.078Z,43.90
2018-04-19T23:28:57.192Z,44.40
2018-04-19T23:31:25.374Z,44.10
2018-04-19T23:33:53.586Z,43.80
2018-04-19T23:36:21.727Z,43.70
2018-04-19T23:38:49.928Z,43.90
2018-04-19T23:41:18.107Z,43.80
2018-04-19T23:43:46.244Z,44.20
2018-04-19T23:46:14.445Z,44.20
2018-04-19T23:48:43.331Z,44.40
2018-04-19T23:51:12.228Z,44.60
2018-04-19T23:53:41.127Z,44.40
2018-04-19T23:56:09.289Z,44.50
2018-04-19T23:58:38.191Z,44.60
